Salt Lake City, Utah
Traffic Map
Current Weather Conditions
Salt Lake City, Utah
Broken Clouds
Broken Clouds
-1°
Feels Like: -7°
Wind Chill: -7° Ceiling: 4400
Heat Index: -1° Visibility: 10mi
Dew Point: -8° Wind: 15mph
Humidity: 59% Direction: 330° (NNW)
Pressure: 29.6in Gusts: 0mph
Raw Report DataKSLC 192154Z 33013KT 10SM FEW034 BKN044 BKN055 M01/M08 A2960 RMK AO2 SNE2058 SLP034 VIRGA DSNT SW-W SH VC NE-S P0000 T10111083 $
Traffic Incident Summary
Active as of:
Severity:
Category:
InformationThere was an issue retrieving the traffic information for this location. Please try a different location or try again shortly.
Advertisements